| time (UTC) | temp C | wind direction | speed KPH | gust KPH | rain 1hr cm | rain 24hr cm | rain mn cm | humidity % | barometer mb |
| 20260904224010 | 23 | 197 | 1.6 | 3.2 | 0.18 | 4.24 | 4.24 | 97 | 1013.9 |
| 20260904223514 | 23 | 179 | 0.0 | 3.2 | 0.20 | 4.24 | 4.24 | 97 | 1013.9 |
| 20260904223027 | 23 | 172 | 1.6 | 3.2 | 0.23 | 4.24 | 4.24 | 97 | 1014.1 |
| 20260904222516 | 23 | 163 | 1.6 | 6.4 | 0.25 | 4.24 | 4.24 | 97 | 1014.0 |
| 20260904222003 | 23 | 121 | 1.6 | 6.4 | 0.28 | 4.24 | 4.24 | 97 | 1013.9 |
| 20260904221510 | 23 | 103 | 1.6 | 4.8 | 0.25 | 4.22 | 4.22 | 97 | 1013.9 |
| 20260904221003 | 23 | 57 | 1.6 | 4.8 | 0.28 | 4.22 | 4.22 | 97 | 1013.9 |
| 20260904220504 | 23 | 82 | 3.2 | 4.8 | 0.25 | 4.19 | 4.19 | 97 | 1014.1 |
| 20260904220014 | 23 | 57 | 0.0 | 4.8 | 0.25 | 4.17 | 4.17 | 97 | 1014.0 |
| 20260904215508 | 23 | 87 | 1.6 | 4.8 | 0.23 | 4.14 | 4.14 | 97 | 1014.0 |
| 20260904215009 | 23 | 111 | 1.6 | 3.2 | 0.20 | 4.11 | 4.11 | 97 | 1014.1 |
| 20260904214518 | 23 | 111 | 1.6 | 3.2 | 0.20 | 4.09 | 4.09 | 97 | 1014.1 |
| 20260904214011 | 23 | 111 | 1.6 | 3.2 | 0.18 | 4.06 | 4.06 | 97 | 1014.1 |
| 20260904213512 | 23 | 103 | 3.2 | 3.2 | 0.18 | 4.04 | 4.04 | 97 | 1014.1 |
| 20260904213027 | 23 | 107 | 1.6 | 3.2 | 0.18 | 4.01 | 4.01 | 97 | 1014.1 |
| 20260904212513 | 23 | 158 | 0.0 | 3.2 | 0.20 | 3.99 | 3.99 | 97 | 1014.0 |
| 20260904212015 | 23 | 158 | 0.0 | 3.2 | 0.23 | 3.96 | 3.96 | 97 | 1014.0 |
| 20260904211530 | 23 | 140 | 1.6 | 3.2 | 0.30 | 3.96 | 3.96 | 97 | 1014.1 |
| 20260904211003 | 23 | 23 | 1.6 | 4.8 | 0.38 | 3.94 | 3.94 | 97 | 1014.1 |
| 20260904210504 | 23 | 43 | 1.6 | 4.8 | 0.51 | 3.94 | 3.94 | 97 | 1014.2 |
| 20260904210019 | 23 | 9 | 1.6 | 3.2 | 0.61 | 3.91 | 3.91 | 97 | 1014.2 |
| 20260904205506 | 23 | 55 | 0.0 | 0.0 | 0.76 | 3.91 | 3.91 | 97 | 1014.2 |
| 20260904205007 | 23 | 352 | 0.0 | 3.2 | 0.94 | 3.91 | 3.91 | 97 | 1014.1 |
| 20260904204516 | 23 | 352 | 0.0 | 6.4 | 1.09 | 3.89 | 3.89 | 97 | 1014.0 |
| 20260904204008 | 23 | 38 | 1.6 | 8.0 | 1.27 | 3.89 | 3.89 | 96 | 1014.1 |
| 20260904203511 | 23 | 67 | 3.2 | 8.0 | 1.45 | 3.86 | 3.86 | 96 | 1014.1 |
| 20260904203025 | 23 | 85 | 4.8 | 8.0 | 1.65 | 3.84 | 3.84 | 96 | 1014.2 |
| 20260904202510 | 23 | 73 | 1.6 | 4.8 | 1.85 | 3.78 | 3.78 | 97 | 1014.2 |
| 20260904202014 | 23 | 58 | 0.0 | 4.8 | 2.03 | 3.73 | 3.73 | 97 | 1014.1 |
| 20260904201529 | 23 | 58 | 0.0 | 8.0 | 2.26 | 3.66 | 3.66 | 96 | 1014.3 |
| 20260904201014 | 22 | 42 | 3.2 | 8.0 | 2.39 | 3.56 | 3.56 | 96 | 1014.4 |
| 20260904200502 | 22 | 352 | 4.8 | 8.0 | 2.51 | 3.43 | 3.43 | 96 | 1014.5 |
| 20260904200027 | 22 | 5 | 3.2 | 4.8 | 2.64 | 3.30 | 3.30 | 96 | 1014.8 |
| 20260904195505 | 22 | 352 | 1.6 | 6.4 | 2.74 | 3.15 | 3.15 | 96 | 1014.9 |
| 20260904195011 | 22 | 17 | 3.2 | 6.4 | 2.77 | 2.95 | 2.95 | 96 | 1014.7 |
| 20260904194517 | 22 | 70 | 1.6 | 6.4 | 2.74 | 2.79 | 2.79 | 96 | 1014.6 |
| 20260904194010 | 22 | 5 | 0.0 | 14.5 | 2.59 | 2.62 | 2.62 | 96 | 1014.4 |
| 20260904193510 | 22 | 83 | 4.8 | 14.5 | 2.39 | 2.41 | 2.41 | 95 | 1014.6 |
| 20260904193021 | 22 | 82 | 6.4 | 11.3 | 2.16 | 2.18 | 2.18 | 95 | 1014.6 |
| 20260904192514 | 22 | 67 | 1.6 | 12.9 | 1.91 | 1.93 | 1.93 | 95 | 1014.7 |
| 20260904192012 | 22 | 107 | 6.4 | 14.5 | 1.68 | 1.70 | 1.70 | 95 | 1015.1 |
| 20260904191529 | 22 | 73 | 11.3 | 16.1 | 1.37 | 1.40 | 1.40 | 94 | 1015.2 |
| 20260904191017 | 22 | 119 | 6.4 | 17.7 | 1.14 | 1.17 | 1.17 | 94 | 1015.3 |
| 20260904190514 | 23 | 160 | 11.3 | 22.5 | 0.89 | 0.91 | 0.91 | 94 | 1015.2 |
| 20260904190029 | 23 | 173 | 9.7 | 22.5 | 0.61 | 0.64 | 0.64 | 94 | 1015.4 |
| 20260904185505 | 23 | 200 | 11.3 | 32.2 | 0.38 | 0.41 | 0.41 | 93 | 1015.4 |
| 20260904185007 | 23 | 203 | 11.3 | 41.8 | 0.18 | 0.20 | 0.20 | 90 | 1015.2 |
| 20260904184513 | 25 | 192 | 17.7 | 41.8 | 0.03 | 0.05 | 0.05 | 86 | 1015.4 |
| 20260904184007 | 26 | 151 | 11.3 | 29.0 | 0.00 | 0.03 | 0.03 | 83 | 1015.2 |
| 20260904183511 | 28 | 146 | 9.7 | 27.4 | 0.00 | 0.03 | 0.03 | 83 | 1015.3 |
| 20260904183017 | 28 | 195 | 0.0 | 4.8 | 0.00 | 0.03 | 0.03 | 83 | 1015.1 |
| 20260904182513 | 28 | 256 | 1.6 | 8.0 | 0.00 | 0.03 | 0.03 | 81 | 1014.9 |
| 20260904182016 | 28 | 341 | 3.2 | 17.7 | 0.00 | 0.03 | 0.03 | 81 | 1014.5 |
| 20260904181530 | 29 | 327 | 4.8 | 17.7 | 0.00 | 0.03 | 0.03 | 80 | 1014.1 |
| 20260904181020 | 28 | 31 | 6.4 | 17.7 | 0.00 | 0.03 | 0.03 | 83 | 1014.2 |
| 20260904180514 | 28 | 329 | 8.0 | 17.7 | 0.00 | 0.03 | 0.03 | 83 | 1014.2 |
| 20260904180028 | 29 | 28 | 8.0 | 17.7 | 0.00 | 0.03 | 0.03 | 82 | 1014.4 |
| 20260904175514 | 30 | 349 | 9.7 | 16.1 | 0.00 | 0.03 | 0.03 | 80 | 1014.5 |
| 20260904175015 | 30 | 344 | 4.8 | 14.5 | 0.00 | 0.03 | 0.03 | 82 | 1014.6 |
| 20260904174515 | 29 | 13 | 3.2 | 14.5 | 0.03 | 0.03 | 0.03 | 84 | 1014.6 |
| 20260904174006 | 28 | 40 | 4.8 | 12.9 | 0.03 | 0.03 | 0.03 | 84 | 1014.7 |
| 20260904173507 | 28 | 28 | 6.4 | 12.9 | 0.03 | 0.03 | 0.03 | 84 | 1014.9 |
| 20260904173017 | 28 | 319 | 8.0 | 14.5 | 0.03 | 0.03 | 0.03 | 85 | 1014.8 |
| 20260904172510 | 28 | 74 | 6.4 | 17.7 | 0.03 | 0.03 | 0.03 | 84 | 1014.9 |
| 20260904172010 | 28 | 352 | 8.0 | 17.7 | 0.03 | 0.03 | 0.03 | 84 | 1015.1 |
| 20260904171527 | 28 | 360 | 8.0 | 16.1 | 0.03 | 0.03 | 0.03 | 86 | 1015.3 |
| 20260904171011 | 28 | 329 | 4.8 | 9.7 | 0.03 | 0.03 | 0.03 | 85 | 1015.4 |
| 20260904170513 | 28 | 346 | 4.8 | 8.0 | 0.03 | 0.03 | 0.03 | 86 | 1015.4 |
| 20260904170043 | 29 | 334 | 4.8 | 6.4 | 0.03 | 0.03 | 0.03 | 87 | 1015.5 |
| 20260904165516 | 29 | 292 | 3.2 | 6.4 | 0.03 | 0.03 | 0.03 | 85 | 1015.5 |
| 20260904165014 | 29 | 271 | 0.0 | 8.0 | 0.03 | 0.03 | 0.03 | 84 | 1015.6 |
| 20260904164533 | 29 | 169 | 3.2 | 9.7 | 0.00 | 0.00 | 0.00 | 82 | 1015.7 |
| 20260904164015 | 29 | 159 | 4.8 | 9.7 | 0.00 | 0.00 | 0.00 | 80 | 1015.7 |
| 20260904163506 | 30 | 115 | 0.0 | 0.0 | 0.00 | 0.00 | 0.00 | 80 | 1015.8 |
| 20260904163017 | 30 | 267 | 0.0 | 6.4 | 0.00 | 0.00 | 0.00 | 80 | 1015.7 |
| 20260904162508 | 30 | 311 | 0.0 | 6.4 | 0.00 | 0.00 | 0.00 | 82 | 1015.7 |
| 20260904162010 | 30 | 53 | 1.6 | 8.0 | 0.00 | 0.00 | 0.00 | 82 | 1015.8 |
| 20260904161523 | 30 | 36 | 4.8 | 8.0 | 0.00 | 0.00 | 0.00 | 80 | 1015.8 |
| 20260904161015 | 30 | 33 | 3.2 | 6.4 | 0.00 | 0.00 | 0.00 | 80 | 1015.8 |
| 20260904160513 | 30 | 76 | 3.2 | 9.7 | 0.00 | 0.00 | 0.00 | 79 | 1015.8 |
| 20260904160028 | 30 | 109 | 4.8 | 8.0 | 0.00 | 0.00 | 0.00 | 77 | 1015.7 |
| 20260904155515 | 30 | 88 | 3.2 | 8.0 | 0.00 | 0.00 | 0.00 | 81 | 1015.7 |
| 20260904155016 | 30 | 91 | 3.2 | 8.0 | 0.00 | 0.00 | 0.00 | 78 | 1015.7 |
| 20260904154531 | 30 | 98 | 3.2 | 4.8 | 0.00 | 0.00 | 0.00 | 81 | 1015.6 |
| 20260904154017 | 29 | 88 | 0.0 | 0.0 | 0.00 | 0.00 | 0.00 | 78 | 1015.6 |
| 20260904153516 | 29 | 42 | 0.0 | 0.0 | 0.00 | 0.00 | 0.00 | 80 | 1015.6 |
| 20260904153032 | 29 | 42 | 0.0 | 4.8 | 0.00 | 0.00 | 0.00 | 79 | 1015.5 |
| 20260904152507 | 29 | 42 | 1.6 | 4.8 | 0.00 | 0.00 | 0.00 | 80 | 1015.5 |
| 20260904152006 | 29 | 113 | 1.6 | 9.7 | 0.00 | 0.00 | 0.00 | 81 | 1015.5 |
| 20260904151520 | 29 | 130 | 4.8 | 9.7 | 0.00 | 0.00 | 0.00 | 80 | 1015.5 |
| 20260904151012 | 29 | 27 | 1.6 | 4.8 | 0.00 | 0.00 | 0.00 | 83 | 1015.5 |
| 20260904150512 | 28 | 118 | 3.2 | 4.8 | 0.00 | 0.00 | 0.00 | 83 | 1015.4 |
| 20260904150033 | 28 | 142 | 4.8 | 6.4 | 0.00 | 0.00 | 0.00 | 83 | 1015.4 |
| 20260904145514 | 28 | 102 | 0.0 | 6.4 | 0.00 | 0.00 | 0.00 | 84 | 1015.4 |
| 20260904145017 | 28 | 92 | 3.2 | 4.8 | 0.00 | 0.00 | 0.00 | 86 | 1015.4 |
| 20260904144507 | 28 | 137 | 1.6 | 6.4 | 0.00 | 0.00 | 0.00 | 85 | 1015.3 |
| 20260904144004 | 28 | 119 | 1.6 | 8.0 | 0.00 | 0.00 | 0.00 | 86 | 1015.3 |
| 20260904143505 | 28 | 129 | 3.2 | 8.0 | 0.00 | 0.00 | 0.00 | 85 | 1015.2 |
| 20260904143011 | 28 | 97 | 3.2 | 6.4 | 0.00 | 0.00 | 0.00 | 86 | 1015.3 |
| 20260904142506 | 28 | 76 | 1.6 | 8.0 | 0.00 | 0.00 | 0.00 | 87 | 1015.2 |
| 20260904142009 | 28 | 129 | 3.2 | 12.9 | 0.00 | 0.00 | 0.00 | 85 | 1015.3 |
| 20260904141517 | 28 | 101 | 4.8 | 12.9 | 0.00 | 0.00 | 0.00 | 86 | 1015.3 |
| 20260904141009 | 28 | 67 | 3.2 | 8.0 | 0.00 | 0.00 | 0.00 | 86 | 1015.3 |
| 20260904140510 | 27 | 87 | 0.0 | 6.4 | 0.00 | 0.00 | 0.00 | 87 | 1015.3 |
| 20260904140025 | 27 | 105 | 1.6 | 6.4 | 0.00 | 0.00 | 0.00 | 87 | 1015.3 |
| 20260904135513 | 27 | 111 | 3.2 | 6.4 | 0.00 | 0.00 | 0.00 | 87 | 1015.3 |
| 20260904135014 | 27 | 114 | 3.2 | 6.4 | 0.00 | 0.00 | 0.00 | 88 | 1015.3 |
| 20260904134531 | 27 | 98 | 1.6 | 8.0 | 0.00 | 0.00 | 0.00 | 89 | 1015.3 |
| 20260904134016 | 27 | 105 | 3.2 | 9.7 | 0.00 | 0.00 | 0.00 | 90 | 1015.2 |
| 20260904133503 | 26 | 127 | 6.4 | 9.7 | 0.00 | 0.00 | 0.00 | 90 | 1015.3 |
| 20260904133009 | 26 | 78 | 3.2 | 8.0 | 0.00 | 0.00 | 0.00 | 91 | 1015.3 |
| 20260904132505 | 26 | 107 | 4.8 | 9.7 | 0.00 | 0.00 | 0.00 | 90 | 1015.4 |
| 20260904132002 | 26 | 103 | 3.2 | 9.7 | 0.00 | 0.00 | 0.00 | 90 | 1015.3 |
| 20260904131518 | 26 | 129 | 3.2 | 9.7 | 0.00 | 0.00 | 0.00 | 91 | 1015.4 |
| 20260904131009 | 26 | 132 | 4.8 | 9.7 | 0.00 | 0.00 | 0.00 | 90 | 1015.4 |
| 20260904130509 | 26 | 86 | 3.2 | 9.7 | 0.00 | 0.00 | 0.00 | 91 | 1015.4 |
| 20260904130020 | 26 | 101 | 3.2 | 6.4 | 0.00 | 0.00 | 0.00 | 91 | 1015.3 |
| 20260904125513 | 26 | 94 | 4.8 | 8.0 | 0.00 | 0.00 | 0.00 | 91 | 1015.2 |
| 20260904125016 | 26 | 88 | 3.2 | 8.0 | 0.00 | 0.00 | 0.00 | 91 | 1015.2 |
| 20260904124528 | 26 | 69 | 4.8 | 8.0 | 0.00 | 0.00 | 0.00 | 91 | 1015.2 |
| 20260904124013 | 26 | 54 | 4.8 | 6.4 | 0.00 | 0.00 | 0.00 | 92 | 1015.2 |
| 20260904123519 | 25 | 82 | 4.8 | 6.4 | 0.00 | 0.00 | 0.00 | 93 | 1015.2 |
| 20260904123008 | 25 | 83 | 3.2 | 6.4 | 0.00 | 0.00 | 0.00 | 93 | 1015.2 |
| 20260904122505 | 25 | 69 | 0.0 | 0.0 | 0.00 | 0.00 | 0.00 | 93 | 1015.1 |
| 20260904122005 | 25 | 65 | 0.0 | 3.2 | 0.00 | 0.00 | 0.00 | 94 | 1015.1 |
| 20260904121514 | 25 | 90 | 0.0 | 4.8 | 0.00 | 0.00 | 0.00 | 94 | 1015.0 |
| 20260904121008 | 25 | 90 | 1.6 | 4.8 | 0.00 | 0.00 | 0.00 | 94 | 1015.0 |
| 20260904120510 | 25 | 77 | 1.6 | 4.8 | 0.00 | 0.00 | 0.00 | 94 | 1014.8 |
| 20260904120027 | 24 | 71 | 0.0 | 3.2 | 0.00 | 0.00 | 0.00 | 95 | 1014.9 |
| 20260904115510 | 24 | 146 | 0.0 | 3.2 | 0.00 | 0.00 | 0.00 | 95 | 1014.9 |
| 20260904115013 | 24 | 69 | 0.0 | 3.2 | 0.00 | 0.00 | 0.00 | 96 | 1014.8 |
| 20260904114528 | 24 | 37 | 0.0 | 0.0 | 0.00 | 0.00 | 0.00 | 96 | 1014.6 |
| 20260904114015 | 24 | 59 | 0.0 | 0.0 | 0.00 | 0.00 | 0.00 | 95 | 1014.5 |
| 20260904113514 | 24 | 93 | 0.0 | 0.0 | 0.00 | 0.00 | 0.00 | 95 | 1014.5 |
| 20260904113032 | 24 | 93 | 0.0 | 0.0 | 0.00 | 0.00 | 0.00 | 95 | 1014.4 |
| 20260904112517 | 24 | 84 | 0.0 | 0.0 | 0.00 | 0.00 | 0.00 | 95 | 1014.4 |
| 20260904112004 | 24 | 84 | 0.0 | 0.0 | 0.00 | 0.00 | 0.00 | 95 | 1014.4 |
| 20260904111514 | 24 | 65 | 0.0 | 1.6 | 0.00 | 0.00 | 0.00 | 95 | 1014.2 |
| 20260904111006 | 24 | 67 | 0.0 | 4.8 | 0.00 | 0.00 | 0.00 | 95 | 1014.3 |
| 20260904110509 | 24 | 80 | 1.6 | 4.8 | 0.00 | 0.00 | 0.00 | 95 | 1014.3 |
| 20260904110021 | 24 | 34 | 0.0 | 4.8 | 0.00 | 0.00 | 0.00 | 95 | 1014.3 |
| 20260904105510 | 24 | 46 | 1.6 | 6.4 | 0.00 | 0.00 | 0.00 | 95 | 1014.3 |
| 20260904105013 | 24 | 39 | 1.6 | 6.4 | 0.00 | 0.00 | 0.00 | 95 | 1014.3 |
| 20260904104527 | 24 | 45 | 0.0 | 6.4 | 0.00 | 0.00 | 0.00 | 95 | 1014.3 |
| 20260904104016 | 24 | 66 | 0.0 | 0.0 | 0.00 | 0.00 | 0.00 | 95 | 1014.4 |
| 20260904103514 | 24 | 74 | 0.0 | 0.0 | 0.00 | 0.00 | 0.00 | 95 | 1014.4 |
| 20260904103030 | 24 | 59 | 0.0 | 1.6 | 0.00 | 0.00 | 0.00 | 95 | 1014.3 |
| 20260904102517 | 24 | 28 | 0.0 | 4.8 | 0.00 | 0.00 | 0.00 | 95 | 1014.3 |
| 20260904102018 | 24 | 55 | 1.6 | 6.4 | 0.00 | 0.00 | 0.00 | 95 | 1014.3 |
| 20260904101533 | 24 | 33 | 1.6 | 6.4 | 0.00 | 0.00 | 0.00 | 95 | 1014.2 |
| 20260904101007 | 24 | 38 | 0.0 | 3.2 | 0.00 | 0.00 | 0.00 | 96 | 1014.2 |
| 20260904100510 | 24 | 9 | 0.0 | 0.0 | 0.00 | 0.00 | 0.00 | 96 | 1014.2 |
| 20260904100026 | 24 | 22 | 0.0 | 3.2 | 0.00 | 0.00 | 0.00 | 96 | 1014.2 |
| 20260904095512 | 24 | 43 | 0.0 | 3.2 | 0.00 | 0.00 | 0.00 | 96 | 1014.2 |
| 20260904095009 | 24 | 28 | 0.0 | 3.2 | 0.00 | 0.00 | 0.00 | 96 | 1014.2 |
| 20260904094526 | 25 | 28 | 1.6 | 3.2 | 0.00 | 0.00 | 0.00 | 96 | 1014.2 |
| 20260904094010 | 25 | 11 | 0.0 | 3.2 | 0.00 | 0.00 | 0.00 | 96 | 1014.2 |
| 20260904093514 | 25 | 11 | 0.0 | 0.0 | 0.00 | 0.00 | 0.00 | 96 | 1014.2 |
| 20260904093051 | 25 | 11 | 0.0 | 0.0 | 0.00 | 0.00 | 0.00 | 96 | 1014.1 |
| 20260904092516 | 25 | 58 | 0.0 | 0.0 | 0.00 | 0.00 | 0.00 | 96 | 1014.1 |
| 20260904092015 | 25 | 58 | 0.0 | 0.0 | 0.00 | 0.00 | 0.00 | 96 | 1014.1 |
| 20260904091534 | 25 | 58 | 0.0 | 3.2 | 0.00 | 0.00 | 0.00 | 96 | 1014.1 |
| 20260904091015 | 25 | 59 | 0.0 | 3.2 | 0.00 | 0.00 | 0.00 | 96 | 1014.1 |
| 20260904090516 | 25 | 348 | 0.0 | 0.0 | 0.00 | 0.00 | 0.00 | 96 | 1014.1 |
| 20260904090014 | 24 | 348 | 0.0 | 0.0 | 0.00 | 0.00 | 0.00 | 96 | 1014.0 |
| 20260904085506 | 24 | 348 | 0.0 | 0.0 | 0.00 | 0.00 | 0.00 | 96 | 1014.0 |
| 20260904085008 | 24 | 348 | 0.0 | 0.0 | 0.00 | 0.00 | 0.00 | 95 | 1014.1 |
| 20260904084524 | 25 | 348 | 0.0 | 0.0 | 0.00 | 0.00 | 0.00 | 96 | 1014.0 |
| 20260904084010 | 25 | 348 | 0.0 | 0.0 | 0.00 | 0.00 | 0.00 | 96 | 1013.9 |
| 20260904083513 | 25 | 13 | 0.0 | 0.0 | 0.00 | 0.00 | 0.00 | 96 | 1013.9 |
| 20260904083026 | 25 | 22 | 0.0 | 0.0 | 0.00 | 0.00 | 0.00 | 96 | 1013.9 |
| 20260904082515 | 25 | 5 | 0.0 | 0.0 | 0.00 | 0.00 | 0.00 | 96 | 1013.9 |
| 20260904082011 | 25 | 5 | 0.0 | 0.0 | 0.00 | 0.00 | 0.00 | 96 | 1013.8 |
| 20260904081530 | 25 | 5 | 0.0 | 0.0 | 0.00 | 0.00 | 0.00 | 96 | 1013.8 |
| 20260904081017 | 25 | 5 | 0.0 | 0.0 | 0.00 | 0.00 | 0.00 | 96 | 1013.7 |
| 20260904080516 | 25 | 5 | 0.0 | 0.0 | 0.00 | 0.00 | 0.00 | 95 | 1013.7 |
| 20260904080034 | 25 | 5 | 0.0 | 0.0 | 0.00 | 0.00 | 0.00 | 95 | 1013.6 |
| 20260904075518 | 25 | 5 | 0.0 | 0.0 | 0.00 | 0.00 | 0.00 | 95 | 1013.6 |
| 20260904075010 | 25 | 5 | 0.0 | 0.0 | 0.00 | 0.00 | 0.00 | 95 | 1013.7 |
| 20260904074521 | 25 | 5 | 0.0 | 0.0 | 0.00 | 0.00 | 0.00 | 95 | 1013.8 |
| 20260904074009 | 25 | 5 | 0.0 | 0.0 | 0.00 | 0.00 | 0.00 | 95 | 1013.9 |
| 20260904073511 | 25 | 5 | 0.0 | 0.0 | 0.00 | 0.00 | 0.00 | 95 | 1013.9 |
| 20260904073048 | 25 | 5 | 0.0 | 0.0 | 0.00 | 0.00 | 0.00 | 95 | 1013.9 |
| 20260904072511 | 25 | 5 | 0.0 | 0.0 | 0.00 | 0.00 | 0.00 | 95 | 1013.9 |
| 20260904072014 | 25 | 5 | 0.0 | 0.0 | 0.00 | 0.00 | 0.00 | 95 | 1014.0 |
| 20260904071535 | 25 | 5 | 0.0 | 0.0 | 0.00 | 0.00 | 0.00 | 95 | 1014.0 |
| 20260904071016 | 25 | 5 | 0.0 | 0.0 | 0.00 | 0.00 | 0.00 | 95 | 1014.0 |
| 20260904070514 | 25 | 5 | 0.0 | 0.0 | 0.00 | 0.00 | 0.00 | 95 | 1014.0 |
| 20260904070033 | 25 | 5 | 0.0 | 0.0 | 0.00 | 0.00 | 0.00 | 95 | 1014.0 |
| 20260904065519 | 25 | 9 | 0.0 | 0.0 | 0.00 | 0.00 | 0.00 | 95 | 1014.0 |
| 20260904065017 | 25 | 5 | 0.0 | 0.0 | 0.00 | 0.00 | 0.00 | 95 | 1014.1 |
| 20260904064532 | 25 | 5 | 0.0 | 0.0 | 0.00 | 0.00 | 0.00 | 95 | 1014.1 |
| 20260904064009 | 25 | 5 | 0.0 | 0.0 | 0.00 | 0.00 | 0.00 | 95 | 1014.2 |
| 20260904063509 | 25 | 5 | 0.0 | 1.6 | 0.00 | 0.00 | 0.00 | 95 | 1014.3 |
| 20260904063026 | 25 | 13 | 0.0 | 1.6 | 0.00 | 0.00 | 0.00 | 95 | 1014.3 |
| 20260904062513 | 25 | 331 | 0.0 | 0.0 | 0.00 | 0.00 | 0.00 | 95 | 1014.4 |
| 20260904062013 | 25 | 331 | 0.0 | 0.0 | 0.00 | 0.00 | 0.00 | 95 | 1014.4 |
| 20260904061531 | 25 | 331 | 0.0 | 0.0 | 0.00 | 0.00 | 0.00 | 95 | 1014.3 |
| 20260904061014 | 25 | 331 | 0.0 | 0.0 | 0.00 | 0.00 | 0.00 | 95 | 1014.4 |
| 20260904060514 | 25 | 331 | 0.0 | 0.0 | 0.00 | 0.00 | 0.00 | 95 | 1014.5 |
| 20260904060032 | 25 | 331 | 0.0 | 0.0 | 0.00 | 0.00 | 0.00 | 95 | 1014.5 |
| 20260904055521 | 25 | 331 | 0.0 | 0.0 | 0.00 | 0.00 | 0.00 | 95 | 1014.6 |
| 20260904055008 | 25 | 331 | 0.0 | 0.0 | 0.00 | 0.00 | 0.00 | 95 | 1014.7 |
| 20260904054517 | 25 | 331 | 0.0 | 0.0 | 0.00 | 0.00 | 0.00 | 95 | 1014.6 |
| 20260904054007 | 25 | 331 | 0.0 | 0.0 | 0.00 | 0.00 | 0.00 | 94 | 1014.6 |
| 20260904053510 | 25 | 331 | 0.0 | 0.0 | 0.00 | 0.00 | 0.00 | 94 | 1014.6 |
| 20260904053027 | 25 | 331 | 0.0 | 0.0 | 0.00 | 0.00 | 0.00 | 94 | 1014.6 |
| 20260904052512 | 25 | 311 | 0.0 | 0.0 | 0.00 | 0.00 | 0.00 | 94 | 1014.7 |
| 20260904052003 | 25 | 186 | 0.0 | 0.0 | 0.00 | 0.00 | 0.00 | 94 | 1014.8 |
| 20260904051506 | 25 | 186 | 0.0 | 0.0 | 0.00 | 0.00 | 0.00 | 94 | 1014.8 |
| 20260904051002 | 25 | 186 | 0.0 | 0.0 | 0.00 | 0.00 | 0.00 | 94 | 1014.7 |
| 20260904050502 | 25 | 186 | 0.0 | 0.0 | 0.00 | 0.00 | 0.00 | 94 | 1014.7 |
| 20260904050008 | 25 | 186 | 0.0 | 0.0 | 0.00 | 0.00 | 0.00 | 94 | 1014.8 |
| 20260904045504 | 25 | 186 | 0.0 | 0.0 | 0.00 | 0.00 | 0.00 | 93 | 1015.0 |
| 20260904045004 | 25 | 186 | 0.0 | 0.0 | 0.00 | 0.00 | 0.00 | 93 | 1014.9 |
| 20260904044514 | 25 | 186 | 0.0 | 0.0 | 0.00 | 0.00 | 0.00 | 93 | 1014.9 |
| 20260904044008 | 25 | 186 | 0.0 | 0.0 | 0.00 | 0.00 | 0.00 | 93 | 1014.9 |
| 20260904043506 | 25 | 186 | 0.0 | 0.0 | 0.00 | 0.00 | 0.00 | 93 | 1014.9 |
| 20260904043021 | 25 | 186 | 0.0 | 0.0 | 0.00 | 0.00 | 0.00 | 93 | 1015.0 |
| 20260904042511 | 26 | 186 | 0.0 | 0.0 | 0.00 | 0.00 | 0.00 | 92 | 1014.9 |
| 20260904042014 | 26 | 186 | 0.0 | 0.0 | 0.00 | 0.00 | 0.00 | 92 | 1014.9 |
| 20260904041527 | 26 | 186 | 0.0 | 0.0 | 0.00 | 0.00 | 0.00 | 92 | 1014.9 |
| 20260904041003 | 26 | 186 | 0.0 | 0.0 | 0.00 | 0.00 | 0.00 | 92 | 1014.9 |
| 20260904040502 | 26 | 186 | 0.0 | 0.0 | 0.00 | 0.00 | 0.00 | 92 | 1015.0 |
| 20260904040007 | 26 | 186 | 0.0 | 0.0 | 0.00 | 0.00 | 0.00 | 92 | 1015.1 |
| 20260904035504 | 26 | 186 | 0.0 | 0.0 | 0.00 | 0.00 | 0.00 | 91 | 1015.0 |
| 20260904035004 | 26 | 186 | 0.0 | 0.0 | 0.00 | 0.00 | 0.00 | 91 | 1015.0 |
| 20260904034516 | 26 | 186 | 0.0 | 0.0 | 0.00 | 0.00 | 0.00 | 92 | 1015.0 |
| 20260904034008 | 26 | 186 | 0.0 | 0.0 | 0.00 | 0.00 | 0.00 | 92 | 1015.1 |
| 20260904033508 | 26 | 186 | 0.0 | 0.0 | 0.00 | 0.00 | 0.00 | 92 | 1015.0 |
| 20260904033030 | 26 | 186 | 0.0 | 0.0 | 0.00 | 0.00 | 0.00 | 92 | 1015.1 |
| 20260904032509 | 26 | 186 | 0.0 | 0.0 | 0.00 | 0.00 | 0.00 | 92 | 1015.1 |
| 20260904032011 | 26 | 186 | 0.0 | 0.0 | 0.00 | 0.00 | 0.00 | 92 | 1015.3 |
| 20260904031525 | 26 | 186 | 0.0 | 0.0 | 0.00 | 0.00 | 0.00 | 92 | 1015.3 |
| 20260904031013 | 26 | 186 | 0.0 | 0.0 | 0.00 | 0.00 | 0.00 | 92 | 1015.3 |
| 20260904030518 | 26 | 186 | 0.0 | 3.2 | 0.00 | 0.00 | 0.00 | 92 | 1015.3 |
| 20260904030003 | 26 | 186 | 0.0 | 3.2 | 0.00 | 0.00 | 0.00 | 92 | 1015.3 |
| 20260904025503 | 26 | 166 | 0.0 | 0.0 | 0.00 | 0.00 | 0.00 | 92 | 1015.2 |
| 20260904025003 | 26 | 166 | 0.0 | 0.0 | 0.00 | 0.00 | 0.00 | 91 | 1015.1 |
| 20260904024508 | 26 | 128 | 0.0 | 0.0 | 0.00 | 0.00 | 0.00 | 91 | 1015.0 |
| 20260904024004 | 26 | 128 | 0.0 | 0.0 | 0.00 | 0.00 | 0.00 | 91 | 1014.9 |
| 20260904023507 | 26 | 128 | 0.0 | 0.0 | 0.00 | 0.00 | 0.00 | 92 | 1014.9 |
| 20260904023016 | 26 | 128 | 0.0 | 4.8 | 0.00 | 0.00 | 0.00 | 91 | 1014.8 |
| 20260904022509 | 26 | 169 | 0.0 | 4.8 | 0.00 | 0.00 | 0.00 | 91 | 1014.7 |
| 20260904022009 | 26 | 157 | 0.0 | 0.0 | 0.00 | 0.00 | 0.00 | 91 | 1014.7 |
| 20260904021527 | 26 | 163 | 0.0 | 0.0 | 0.00 | 0.00 | 0.00 | 91 | 1014.7 |
| 20260904021011 | 26 | 134 | 0.0 | 0.0 | 0.00 | 0.00 | 0.00 | 91 | 1014.7 |
| 20260904020512 | 26 | 134 | 0.0 | 0.0 | 0.00 | 0.00 | 0.00 | 91 | 1014.7 |
| 20260904020030 | 26 | 134 | 0.0 | 0.0 | 0.00 | 0.00 | 0.00 | 91 | 1014.7 |
| 20260904015513 | 26 | 134 | 0.0 | 0.0 | 0.00 | 0.00 | 0.00 | 91 | 1014.7 |
| 20260904015006 | 26 | 134 | 0.0 | 0.0 | 0.00 | 0.00 | 0.00 | 91 | 1014.6 |
| 20260904014508 | 26 | 134 | 0.0 | 0.0 | 0.00 | 0.00 | 0.00 | 90 | 1014.6 |
| 20260904014002 | 26 | 134 | 0.0 | 0.0 | 0.00 | 0.00 | 0.00 | 90 | 1014.5 |
| 20260904013503 | 26 | 134 | 0.0 | 0.0 | 0.00 | 0.00 | 0.00 | 90 | 1014.4 |
| 20260904013018 | 26 | 134 | 0.0 | 0.0 | 0.00 | 0.00 | 0.00 | 90 | 1014.4 |
| 20260904012507 | 26 | 134 | 0.0 | 0.0 | 0.00 | 0.00 | 0.00 | 90 | 1014.3 |
| 20260904012008 | 26 | 134 | 0.0 | 0.0 | 0.00 | 0.00 | 0.00 | 90 | 1014.2 |
| 20260904011523 | 26 | 134 | 0.0 | 0.0 | 0.00 | 0.00 | 0.00 | 89 | 1014.2 |
| 20260904011010 | 26 | 134 | 0.0 | 0.0 | 0.00 | 0.00 | 0.00 | 89 | 1014.1 |
| 20260904010512 | 27 | 134 | 0.0 | 0.0 | 0.00 | 0.00 | 0.00 | 89 | 1014.1 |
| 20260904010029 | 27 | 134 | 0.0 | 0.0 | 0.00 | 0.00 | 0.00 | 89 | 1014.1 |
| 20260904005519 | 27 | 134 | 0.0 | 0.0 | 0.00 | 0.00 | 0.00 | 89 | 1014.1 |
| 20260904005015 | 27 | 134 | 0.0 | 0.0 | 0.00 | 0.00 | 0.00 | 88 | 1014.1 |
| 20260904004531 | 27 | 134 | 0.0 | 0.0 | 0.00 | 0.00 | 0.00 | 87 | 1014.0 |
| 20260904004003 | 27 | 134 | 0.0 | 0.0 | 0.00 | 0.00 | 0.00 | 87 | 1014.0 |
| 20260904003503 | 27 | 117 | 0.0 | 0.0 | 0.00 | 0.00 | 0.00 | 87 | 1013.9 |
| 20260904003012 | 27 | 117 | 0.0 | 0.0 | 0.00 | 0.00 | 0.00 | 86 | 1013.8 |
| 20260904002507 | 27 | 117 | 0.0 | 0.0 | 0.00 | 0.00 | 0.00 | 86 | 1013.7 |
| 20260904002008 | 27 | 117 | 0.0 | 0.0 | 0.00 | 0.00 | 0.00 | 85 | 1013.7 |
| 20260904001521 | 27 | 117 | 0.0 | 0.0 | 0.00 | 0.00 | 0.00 | 85 | 1013.6 |
| 20260904001008 | 27 | 123 | 0.0 | 0.0 | 0.00 | 0.00 | 0.00 | 84 | 1013.7 |
| 20260904000515 | 28 | 134 | 0.0 | 0.0 | 0.00 | 0.00 | 0.00 | 84 | 1013.6 |
| 20260904000027 | 28 | 134 | 0.0 | 0.0 | 0.00 | 0.00 | 0.00 | 83 | 1013.4 |
| 20260903235514 | 28 | 134 | 0.0 | 0.0 | 0.00 | 0.00 | 0.00 | 83 | 1013.3 |
| 20260903235012 | 28 | 134 | 0.0 | 0.0 | 0.00 | 0.00 | 0.00 | 83 | 1013.2 |
| 20260903234527 | 28 | 134 | 0.0 | 6.4 | 0.00 | 0.00 | 0.00 | 82 | 1013.0 |
| 20260903234016 | 28 | 122 | 0.0 | 6.4 | 0.00 | 0.00 | 0.00 | 82 | 1013.1 |
| 20260903233507 | 28 | 138 | 3.2 | 6.4 | 0.00 | 0.00 | 0.00 | 81 | 1013.1 |
| 20260903233007 | 28 | 110 | 1.6 | 8.0 | 0.00 | 0.00 | 0.00 | 81 | 1013.2 |
| 20260903232506 | 28 | 114 | 4.8 | 9.7 | 0.00 | 0.00 | 0.00 | 80 | 1013.3 |
| 20260903232007 | 28 | 111 | 4.8 | 11.3 | 0.00 | 0.00 | 0.00 | 79 | 1013.2 |
| 20260903231517 | 28 | 103 | 4.8 | 11.3 | 0.00 | 0.00 | 0.00 | 79 | 1013.2 |
| 20260903231010 | 28 | 123 | 6.4 | 11.3 | 0.00 | 0.00 | 0.00 | 78 | 1013.2 |
| 20260903230509 | 29 | 113 | 4.8 | 11.3 | 0.00 | 0.00 | 0.00 | 76 | 1013.1 |
| 20260903230042 | 29 | 105 | 8.0 | 14.5 | 0.00 | 0.00 | 0.00 | 75 | 1013.0 |
| 20260903225518 | 30 | 103 | 6.4 | 14.5 | 0.00 | 0.00 | 0.00 | 73 | 1013.1 |
| 20260903225013 | 30 | 126 | 8.0 | 12.9 | 0.00 | 0.00 | 0.00 | 72 | 1013.1 |
| 20260903224530 | 30 | 119 | 0.0 | 4.8 | 0.00 | 0.00 | 0.00 | 70 | 1013.0 |